Time;durP1;ratioP1;P1;durP2;ratioP2;P2;SDS_P1;SDS_P2;PMS_P1;PMS_P2;Temp;Humidity;BMP_temperature;BMP_pressure;BME280_temperature;BME280_humidity;BME280_pressure;Samples;Min_cycle;Max_cycle;Signal;HPM_P1;HPM_P2
2021/05/09 00:01:27;;;;;;;9.32;1.70;;;;;;;7.57;62.61;97504.19;4907602;29;20044;-68
2021/05/09 00:03:54;;;;;;;9.68;1.65;;;;;;;7.42;61.05;97439.50;4906448;29;20040;-69
2021/05/09 00:06:20;;;;;;;18.80;3.72;;;;;;;7.97;60.87;97513.47;4907155;29;20519;-70
2021/05/09 00:08:46;;;;;;;5.80;1.67;;;;;;;7.03;60.90;97357.41;4907651;29;20044;-70
2021/05/09 00:11:12;;;;;;;10.02;1.85;;;;;;;7.89;61.97;97505.31;4907149;29;20040;-69
2021/05/09 00:13:37;;;;;;;3.85;1.67;;;;;;;7.82;59.45;97491.28;4907396;29;20051;-68
2021/05/09 00:16:04;;;;;;;4.75;1.92;;;;;;;8.08;57.92;97511.09;4907100;29;20392;-67
2021/05/09 00:18:29;;;;;;;10.02;3.67;;;;;;;8.09;57.75;97518.22;4907727;29;20517;-67
2021/05/09 00:20:56;;;;;;;4.93;1.73;;;;;;;8.05;57.88;97525.56;4907416;29;20036;-66
2021/05/09 00:23:21;;;;;;;4.90;1.83;;;;;;;7.93;57.92;97500.72;4908218;29;20047;-67
2021/05/09 00:25:47;;;;;;;7.18;2.55;;;;;;;7.99;58.88;97524.16;4905637;29;20040;-67
2021/05/09 00:28:12;;;;;;;2.20;1.20;;;;;;;7.93;58.65;97522.78;4906095;29;20665;-70
2021/05/09 00:30:38;;;;;;;2.65;1.85;;;;;;;7.84;58.42;97519.31;4905423;29;20511;-67
2021/05/09 00:33:04;;;;;;;3.42;1.30;;;;;;;7.89;58.55;97517.13;4905766;29;20040;-70
2021/05/09 00:35:29;;;;;;;4.07;1.55;;;;;;;8.06;57.71;97521.66;4907314;29;20050;-67
2021/05/09 00:37:55;;;;;;;7.72;2.17;;;;;;;7.67;57.51;97465.97;4907637;29;20431;-68
2021/05/09 00:40:20;;;;;;;7.18;2.20;;;;;;;6.93;63.11;97523.06;4906935;29;20043;-67
2021/05/09 00:42:46;;;;;;;2.38;1.30;;;;;;;7.18;63.96;97535.81;4906280;29;20490;-67
2021/05/09 00:45:12;;;;;;;3.67;1.50;;;;;;;6.89;63.23;97483.53;4905495;29;20091;-68
2021/05/09 00:47:37;;;;;;;1.50;0.93;;;;;;;7.27;60.59;97544.03;4907537;29;20032;-67
2021/05/09 00:50:04;;;;;;;2.70;1.10;;;;;;;7.26;60.51;97536.88;4906900;29;20419;-67
2021/05/09 00:52:33;;;;;;;3.20;1.20;;;;;;;7.52;59.61;97571.34;4907287;29;20094;-68
2021/05/09 00:55:02;;;;;;;2.90;1.48;;;;;;;7.44;60.60;97549.38;4907225;29;20036;-68
2021/05/09 00:57:31;;;;;;;2.28;1.45;;;;;;;7.29;60.81;97537.03;4907314;29;20048;-69
2021/05/09 00:59:59;;;;;;;2.35;1.40;;;;;;;7.28;60.97;97551.97;4905834;29;20047;-69
2021/05/09 01:02:26;;;;;;;2.42;1.30;;;;;;;7.26;61.42;97564.44;4906814;29;20032;-69
2021/05/09 01:04:53;;;;;;;2.42;1.17;;;;;;;7.27;61.00;97539.31;4906774;29;20123;-68
2021/05/09 01:07:19;;;;;;;3.42;1.25;;;;;;;7.16;60.63;97553.84;4907045;29;20036;-68
2021/05/09 01:09:44;;;;;;;4.10;1.48;;;;;;;7.04;61.12;97535.28;4907390;29;20476;-69
2021/05/09 01:12:14;;;;;;;2.45;1.20;;;;;;;7.08;61.40;97549.22;4906866;29;20036;-68
2021/05/09 01:14:41;;;;;;;5.80;2.10;;;;;;;6.99;62.31;97557.50;4907124;29;20504;-67
2021/05/09 01:17:06;;;;;;;7.07;2.25;;;;;;;6.92;62.75;97557.25;4906968;29;20032;-68
2021/05/09 01:19:33;;;;;;;6.85;2.17;;;;;;;6.88;63.18;97564.56;4910868;29;20463;-68
2021/05/09 01:21:59;;;;;;;6.13;2.20;;;;;;;6.20;62.55;97449.38;4908949;29;20043;-68
2021/05/09 01:24:24;;;;;;;5.55;2.00;;;;;;;6.78;63.36;97564.16;4910756;29;20032;-68
2021/05/09 01:26:50;;;;;;;6.88;2.28;;;;;;;6.83;63.66;97561.22;4910134;29;20032;-68
2021/05/09 01:29:15;;;;;;;4.05;1.88;;;;;;;6.66;63.64;97528.25;4910558;29;20036;-68
2021/05/09 01:31:45;;;;;;;2.97;1.30;;;;;;;6.65;63.86;97549.50;4909922;29;20054;-68
2021/05/09 01:34:11;;;;;;;3.60;1.17;;;;;;;6.85;62.72;97572.66;4910183;29;20082;-68
2021/05/09 01:36:36;;;;;;;2.05;1.10;;;;;;;6.58;63.09;97565.69;4908160;29;20063;-67
2021/05/09 01:39:03;;;;;;;3.47;1.38;;;;;;;6.60;63.48;97579.94;4910414;29;20035;-67
2021/05/09 01:41:28;;;;;;;4.75;1.65;;;;;;;6.09;62.89;97483.91;4908107;29;20510;-68
2021/05/09 01:43:54;;;;;;;5.40;2.20;;;;;;;6.44;65.01;97537.59;4910579;29;20040;-69
2021/05/09 01:46:19;;;;;;;3.97;1.42;;;;;;;6.58;64.60;97584.97;4908167;29;20036;-68
2021/05/09 01:48:44;;;;;;;2.42;1.38;;;;;;;6.73;62.33;97594.63;4908687;29;20047;-69
2021/05/09 01:51:10;;;;;;;4.22;1.48;;;;;;;6.75;63.13;97592.34;4909552;29;20479;-67
2021/05/09 01:53:35;;;;;;;3.40;0.93;;;;;;;6.35;62.33;97539.59;4910202;29;20362;-67
2021/05/09 01:56:01;;;;;;;2.30;1.20;;;;;;;6.28;62.96;97525.53;4907984;29;20040;-67
2021/05/09 01:58:26;;;;;;;3.28;1.10;;;;;;;6.18;63.87;97523.16;4910189;29;20060;-67
2021/05/09 02:00:51;;;;;;;8.73;2.35;;;;;;;6.03;67.87;97575.97;4908606;29;20034;-68
2021/05/09 02:03:17;;;;;;;11.73;2.53;;;;;;;6.25;67.04;97592.22;4910226;29;20046;-69
2021/05/09 02:05:42;;;;;;;3.03;1.50;;;;;;;3.82;66.08;97199.16;4908016;29;20416;-68
2021/05/09 02:08:08;;;;;;;6.10;2.42;;;;;;;5.46;70.84;97602.03;4910209;29;20040;-69
2021/05/09 02:10:33;;;;;;;7.30;2.88;;;;;;;5.45;72.17;97603.19;4909321;29;20043;-69
2021/05/09 02:12:58;;;;;;;4.57;2.08;;;;;;;5.78;70.59;97612.53;4909961;29;20032;-69
2021/05/09 02:15:24;;;;;;;5.18;1.67;;;;;;;5.85;68.97;97619.19;4907742;29;20048;-70
2021/05/09 02:17:49;;;;;;;5.53;1.67;;;;;;;5.57;68.78;97573.94;4909365;29;20180;-70
2021/05/09 02:20:15;;;;;;;4.70;1.77;;;;;;;5.54;68.26;97524.31;4909355;29;20048;-69
2021/05/09 02:22:41;;;;;;;3.80;1.77;;;;;;;6.00;66.95;97626.13;4909896;29;20476;-69
2021/05/09 02:25:07;;;;;;;3.92;1.42;;;;;;;6.24;66.55;97618.13;4909100;29;20051;-69
2021/05/09 02:27:33;;;;;;;4.03;1.52;;;;;;;5.39;66.37;97483.63;4909333;29;20459;-69
2021/05/09 02:29:59;;;;;;;3.45;1.60;;;;;;;6.01;67.68;97628.53;4908745;29;20431;-68
2021/05/09 02:32:24;;;;;;;1.95;1.20;;;;;;;5.73;67.41;97582.47;4908675;29;20507;-70
2021/05/09 02:34:49;;;;;;;4.50;1.33;;;;;;;5.10;67.89;97498.03;4909413;29;20083;-70
2021/05/09 02:37:15;;;;;;;4.82;1.20;;;;;;;6.07;67.59;97631.91;4909041;29;20040;-69
2021/05/09 02:39:40;;;;;;;1.98;1.10;;;;;;;6.05;67.29;97640.47;4909468;29;20127;-69
2021/05/09 02:42:06;;;;;;;3.40;1.20;;;;;;;6.07;66.92;97637.41;4907628;29;20032;-69
2021/05/09 02:44:31;;;;;;;3.95;0.80;;;;;;;5.56;67.20;97569.56;4907572;29;20051;-68
2021/05/09 02:46:57;;;;;;;3.17;1.30;;;;;;;5.63;67.11;97572.63;4908752;29;20111;-69
2021/05/09 02:49:22;;;;;;;2.83;1.27;;;;;;;6.11;67.10;97654.88;4907230;29;20028;-68
2021/05/09 02:51:48;;;;;;;2.33;1.20;;;;;;;5.96;67.72;97674.63;4908451;29;20062;-68
2021/05/09 02:54:13;;;;;;;3.20;1.10;;;;;;;5.66;66.31;97615.13;4908887;29;20088;-68
2021/05/09 02:56:39;;;;;;;1.70;1.20;;;;;;;5.79;67.19;97622.38;4908270;29;20056;-68
2021/05/09 02:59:04;;;;;;;5.88;2.30;;;;;;;5.96;67.36;97669.13;4908878;29;20184;-68
2021/05/09 03:01:30;;;;;;;8.48;2.58;;;;;;;5.82;68.95;97679.50;4908540;29;20033;-69
2021/05/09 03:03:55;;;;;;;6.00;2.13;;;;;;;5.60;69.58;97660.38;4906808;29;20044;-69
2021/05/09 03:06:20;;;;;;;6.63;2.55;;;;;;;4.90;70.19;97569.25;4908107;29;20071;-69
2021/05/09 03:08:46;;;;;;;8.32;2.42;;;;;;;5.72;69.85;97693.53;4907291;29;20043;-68
2021/05/09 03:11:11;;;;;;;5.53;2.25;;;;;;;4.71;70.61;97555.00;4908369;29;20560;-69
2021/05/09 03:13:37;;;;;;;8.43;2.42;;;;;;;5.63;70.67;97687.22;4906882;29;20044;-68
2021/05/09 03:16:03;;;;;;;3.63;1.52;;;;;;;5.41;69.75;97668.13;4907870;29;20031;-67
2021/05/09 03:18:29;;;;;;;2.35;1.30;;;;;;;5.64;69.12;97694.34;4907265;29;20142;-68
2021/05/09 03:20:55;;;;;;;3.38;1.38;;;;;;;5.69;68.56;97702.44;4908388;29;20125;-68
2021/05/09 03:23:20;;;;;;;1.30;1.10;;;;;;;5.64;68.89;97710.84;4908762;29;20489;-68
2021/05/09 03:25:46;;;;;;;6.25;1.52;;;;;;;5.59;69.96;97713.75;4907819;29;20043;-68
2021/05/09 03:28:12;;;;;;;3.13;1.38;;;;;;;5.65;69.55;97717.94;4906767;29;20043;-67
2021/05/09 03:30:38;;;;;;;2.88;1.48;;;;;;;5.61;69.72;97734.25;4907735;29;20032;-68
2021/05/09 03:33:03;;;;;;;5.75;1.75;;;;;;;5.63;70.00;97711.94;4908513;29;20491;-68
2021/05/09 03:35:29;;;;;;;3.60;2.08;;;;;;;5.68;69.41;97733.78;4907679;29;20032;-68
2021/05/09 03:37:54;;;;;;;5.90;2.40;;;;;;;5.61;69.87;97703.25;4906527;29;20134;-69
2021/05/09 03:40:20;;;;;;;7.20;2.10;;;;;;;5.83;69.26;97730.59;4907734;29;20480;-71
2021/05/09 03:42:45;;;;;;;4.85;2.70;;;;;;;5.47;69.11;97688.84;4908190;29;20068;-73
2021/05/09 03:45:11;;;;;;;4.85;2.90;;;;;;;6.18;67.39;97737.69;4907896;29;20040;-73
2021/05/09 03:47:38;;;;;;;6.45;2.92;;;;;;;6.16;67.71;97742.72;4908387;29;20044;-71
2021/05/09 03:50:04;;;;;;;9.00;3.67;;;;;;;6.26;67.89;97749.84;4906060;29;20047;-69
2021/05/09 03:52:30;;;;;;;7.82;3.00;;;;;;;6.35;66.92;97864.25;4907341;29;20067;-70
2021/05/09 03:54:56;;;;;;;8.85;3.42;;;;;;;6.45;67.36;97778.63;4922003;29;20168;-71
2021/05/09 03:57:22;;;;;;;9.13;2.65;;;;;;;6.43;68.02;97767.16;4907024;29;20080;-72
2021/05/09 03:59:47;;;;;;;2.28;1.60;;;;;;;6.48;66.63;97769.69;4908215;29;20566;-69
2021/05/09 04:02:13;;;;;;;2.85;1.75;;;;;;;6.64;65.95;97773.56;4905562;29;20123;-69
2021/05/09 04:04:38;;;;;;;8.95;3.75;;;;;;;6.72;65.43;97775.50;4906134;29;20048;-69
2021/05/09 04:07:04;;;;;;;3.08;1.50;;;;;;;6.38;64.83;97689.44;4905773;29;20032;-70
2021/05/09 04:09:29;;;;;;;2.90;1.40;;;;;;;7.22;64.09;97770.94;4908178;29;20575;-71
2021/05/09 04:11:55;;;;;;;1.73;1.02;;;;;;;7.47;63.05;97783.00;4907201;29;20047;-70
2021/05/09 04:14:20;;;;;;;4.05;2.10;;;;;;;7.57;64.06;97769.63;4908045;29;20073;-72
2021/05/09 04:16:46;;;;;;;2.75;1.85;;;;;;;6.85;62.67;97639.56;4908077;29;20027;-70
2021/05/09 04:19:11;;;;;;;3.35;2.05;;;;;;;7.86;62.27;97784.53;4907961;29;20147;-71
2021/05/09 04:21:37;;;;;;;3.72;1.80;;;;;;;8.04;61.35;97783.28;4905305;29;20046;-71
2021/05/09 04:24:02;;;;;;;2.47;1.80;;;;;;;8.21;60.55;97789.47;4907505;29;20083;-69
2021/05/09 04:26:28;;;;;;;2.42;1.90;;;;;;;7.88;60.06;97757.44;4907077;29;20039;-71
2021/05/09 04:28:53;;;;;;;2.50;1.92;;;;;;;8.08;59.59;97756.66;4907988;29;20040;-71
2021/05/09 04:31:19;;;;;;;5.40;3.95;;;;;;;8.62;58.30;97789.47;4907096;29;20043;-70
2021/05/09 04:33:44;;;;;;;4.72;2.17;;;;;;;8.65;58.39;97807.31;4906033;29;20039;-70
2021/05/09 04:36:10;;;;;;;4.40;4.00;;;;;;;8.64;58.74;97776.16;4907002;29;20025;-70
2021/05/09 04:38:35;;;;;;;4.07;2.10;;;;;;;8.89;59.72;97810.16;4905707;29;20040;-70
2021/05/09 04:41:01;;;;;;;2.88;2.05;;;;;;;9.07;60.28;97822.66;4906313;29;20039;-70
2021/05/09 04:43:26;;;;;;;3.95;2.33;;;;;;;9.29;58.49;97819.50;4907516;29;20503;-69
2021/05/09 04:45:54;;;;;;;3.22;2.05;;;;;;;9.44;57.49;97821.56;4907346;29;20032;-71
2021/05/09 04:48:20;;;;;;;2.88;2.03;;;;;;;9.45;56.71;97812.16;4907515;29;20039;-70
2021/05/09 04:50:46;;;;;;;6.53;2.72;;;;;;;9.70;56.72;97818.47;4906647;29;20052;-71
2021/05/09 04:53:33;;;;;;;3.15;1.85;;;;;;;9.85;55.61;97824.13;4910835;29;20092;-69
2021/05/09 04:56:01;;;;;;;3.75;1.90;;;;;;;9.90;55.30;97823.91;4910750;29;20609;-72
2021/05/09 04:58:28;;;;;;;3.00;2.20;;;;;;;10.14;55.04;97834.16;4911181;29;20058;-70
2021/05/09 05:01:00;;;;;;;8.35;3.60;;;;;;;9.55;54.78;97811.66;4910561;29;20038;-71
2021/05/09 05:03:25;;;;;;;7.43;2.28;;;;;;;9.85;54.61;97837.97;4909316;29;20067;-72
2021/05/09 05:05:51;;;;;;;4.10;1.80;;;;;;;9.17;53.72;97686.78;4908740;29;20071;-71
2021/05/09 05:08:17;;;;;;;4.53;2.17;;;;;;;10.40;54.72;97849.22;4909180;29;20593;-72
2021/05/09 05:10:42;;;;;;;3.88;1.90;;;;;;;9.87;54.47;97768.44;4910654;29;20047;-72
2021/05/09 05:13:23;;;;;;;3.05;2.10;;;;;;;10.29;56.82;97853.63;4911139;29;20511;-70
2021/05/09 05:15:52;;;;;;;3.15;2.28;;;;;;;10.10;57.92;97867.28;4909146;29;20036;-72
2021/05/09 05:18:18;;;;;;;4.10;2.90;;;;;;;9.99;56.56;97819.03;4911449;29;20051;-73
2021/05/09 05:20:45;;;;;;;3.38;2.60;;;;;;;10.27;56.69;97883.66;4910052;29;20040;-72
2021/05/09 05:23:11;;;;;;;2.97;2.60;;;;;;;9.81;57.06;97826.00;4910893;29;20563;-72
2021/05/09 05:25:37;;;;;;;3.20;2.25;;;;;;;9.42;56.28;97721.56;4909752;29;20522;-71
2021/05/09 05:28:04;;;;;;;4.57;2.40;;;;;;;9.90;56.85;97773.28;4908721;29;20036;-70
2021/05/09 05:30:29;;;;;;;4.38;2.10;;;;;;;10.52;57.47;97871.38;4910265;29;20062;-72
2021/05/09 05:32:57;;;;;;;2.42;2.22;;;;;;;10.87;57.42;97868.03;4908780;29;20044;-71
2021/05/09 05:35:22;;;;;;;2.15;1.95;;;;;;;11.23;56.49;97873.41;4908707;29;20119;-72
2021/05/09 05:37:48;;;;;;;2.50;1.90;;;;;;;8.61;52.78;97455.69;4910800;29;20036;-70
2021/05/09 05:40:14;;;;;;;2.08;1.63;;;;;;;10.55;50.58;97740.47;4908208;29;20040;-73
2021/05/09 05:42:39;;;;;;;4.10;2.63;;;;;;;10.65;50.89;97728.88;4909997;29;20032;-72
2021/05/09 05:45:05;;;;;;;2.75;2.35;;;;;;;9.65;50.08;97540.16;4908077;29;20044;-72
2021/05/09 05:47:31;;;;;;;7.95;2.60;;;;;;;11.68;51.00;97876.66;4909858;29;20044;-72
2021/05/09 05:49:57;;;;;;;5.90;2.22;;;;;;;11.75;49.29;97865.75;4909257;29;20043;-70
2021/05/09 05:52:23;;;;;;;5.22;3.13;;;;;;;12.00;49.02;97862.41;4908542;29;20501;-70
2021/05/09 05:54:49;;;;;;;3.60;2.30;;;;;;;12.34;48.32;97885.03;4907769;29;20055;-71
2021/05/09 05:57:15;;;;;;;4.60;3.03;;;;;;;12.58;48.73;97877.28;4908957;29;20063;-71
2021/05/09 05:59:40;;;;;;;8.57;2.60;;;;;;;10.37;48.02;97492.69;4906630;29;20052;-71
2021/05/09 06:02:06;;;;;;;4.32;2.35;;;;;;;12.06;47.36;97876.84;4908835;29;20428;-71
2021/05/09 06:04:31;;;;;;;2.80;2.28;;;;;;;12.06;47.19;97843.53;4907917;29;20032;-68
2021/05/09 06:06:57;;;;;;;5.53;2.80;;;;;;;12.78;46.55;97901.16;4908107;29;20044;-70
2021/05/09 06:09:22;;;;;;;3.53;2.47;;;;;;;12.56;48.66;97879.63;4907281;29;20315;-69
2021/05/09 06:11:48;;;;;;;5.43;2.30;;;;;;;13.17;47.32;97899.22;4906843;29;20044;-71
2021/05/09 06:14:13;;;;;;;3.97;2.13;;;;;;;12.97;46.74;97890.06;4907455;29;20035;-72
2021/05/09 06:16:39;;;;;;;5.32;3.30;;;;;;;13.23;45.96;97904.13;4908708;29;20040;-71
2021/05/09 06:19:04;;;;;;;3.45;2.95;;;;;;;12.82;45.93;97821.41;4908437;29;20028;-71
2021/05/09 06:21:29;;;;;;;3.38;2.88;;;;;;;13.60;45.95;97912.81;4909054;29;20038;-71
2021/05/09 06:23:55;;;;;;;5.00;3.00;;;;;;;13.80;46.58;97905.25;4909281;29;20076;-72
2021/05/09 06:26:20;;;;;;;2.58;2.38;;;;;;;13.32;45.15;97924.22;4908753;29;20040;-70
2021/05/09 06:28:46;;;;;;;4.07;2.35;;;;;;;13.78;44.78;97918.72;4907551;29;20358;-71
2021/05/09 06:31:11;;;;;;;2.97;2.53;;;;;;;12.80;46.60;97861.88;4908983;29;20035;-71
2021/05/09 06:33:37;;;;;;;5.20;2.42;;;;;;;13.32;46.31;97923.41;4909030;29;20087;-71
2021/05/09 06:36:02;;;;;;;2.97;2.50;;;;;;;13.56;46.33;97923.09;4908770;29;20038;-71
2021/05/09 06:38:28;;;;;;;3.13;2.30;;;;;;;13.89;45.45;97919.72;4909242;29;20098;-71
2021/05/09 06:40:53;;;;;;;8.30;2.90;;;;;;;14.01;45.83;97916.75;4908448;29;20036;-71
2021/05/09 06:43:19;;;;;;;4.40;2.50;;;;;;;14.00;44.72;97937.44;4908905;29;20036;-71
2021/05/09 06:45:46;;;;;;;4.40;2.33;;;;;;;13.83;45.39;97927.56;4908375;29;20502;-71
2021/05/09 06:48:12;;;;;;;2.47;2.28;;;;;;;13.31;45.92;97850.25;4909098;29;20036;-73
2021/05/09 06:50:38;;;;;;;4.38;2.53;;;;;;;13.65;45.69;97842.91;4908276;29;20035;-73
2021/05/09 06:53:06;;;;;;;2.80;2.50;;;;;;;13.40;44.97;97864.72;4907779;29;20047;-72
2021/05/09 06:55:33;;;;;;;2.40;2.20;;;;;;;14.37;44.36;97930.16;4906980;29;20087;-71
2021/05/09 06:57:58;;;;;;;4.40;2.67;;;;;;;14.08;44.34;97827.72;4908871;29;20240;-72
2021/05/09 07:00:24;;;;;;;2.60;2.40;;;;;;;14.74;43.59;97906.03;4908281;29;20042;-71
2021/05/09 07:02:50;;;;;;;6.80;2.90;;;;;;;14.36;43.64;97828.19;4907331;29;20131;-70
2021/05/09 07:05:16;;;;;;;3.10;2.10;;;;;;;15.16;42.71;97907.41;4908361;29;20036;-71
2021/05/09 07:07:50;;;;;;;2.58;2.38;;;;;;;15.44;41.85;97901.44;4908389;29;20039;-73
2021/05/09 07:10:17;;;;;;;3.13;2.80;;;;;;;15.45;40.89;97958.06;4907868;29;20153;-72
2021/05/09 07:12:43;;;;;;;5.10;2.30;;;;;;;15.22;40.90;97932.22;4907758;29;20044;-70
2021/05/09 07:15:10;;;;;;;3.90;2.35;;;;;;;14.78;41.02;97798.91;4906943;29;20519;-72
2021/05/09 07:17:35;;;;;;;2.70;2.33;;;;;;;15.89;40.01;97909.50;4907381;29;20381;-70
2021/05/09 07:20:03;;;;;;;3.60;2.42;;;;;;;15.98;38.76;97876.44;4905757;29;20429;-71
2021/05/09 07:22:33;;;;;;;3.03;2.60;;;;;;;15.85;39.17;97841.59;4906556;29;20599;-71
2021/05/09 07:24:58;;;;;;;8.80;2.80;;;;;;;15.59;38.91;97766.31;4908365;29;20486;-71
2021/05/09 07:27:24;;;;;;;4.13;2.80;;;;;;;16.24;38.60;97901.44;4908388;29;20853;-71
2021/05/09 07:29:49;;;;;;;2.70;2.50;;;;;;;15.05;40.36;97856.25;4906770;29;20488;-71
2021/05/09 07:32:14;;;;;;;4.22;2.90;;;;;;;15.24;41.74;97913.88;4908383;29;20123;-72
2021/05/09 07:34:40;;;;;;;2.90;2.10;;;;;;;15.18;39.94;97909.84;4908583;29;20457;-71
2021/05/09 07:37:05;;;;;;;3.20;2.22;;;;;;;14.63;41.43;97810.25;4907977;29;20497;-72
2021/05/09 07:39:31;;;;;;;3.28;2.40;;;;;;;15.53;40.00;97926.25;4906503;29;20028;-72
2021/05/09 07:41:56;;;;;;;4.72;2.35;;;;;;;15.30;39.85;97856.53;4905874;29;20036;-71
2021/05/09 07:44:22;;;;;;;3.97;2.28;;;;;;;16.09;39.60;97919.25;4907886;29;20040;-72
2021/05/09 07:46:47;;;;;;;6.18;3.92;;;;;;;16.57;39.23;97926.50;4907617;29;20116;-71
2021/05/09 07:49:12;;;;;;;4.10;3.25;;;;;;;16.13;38.29;97816.69;4908110;29;20054;-71
2021/05/09 07:51:38;;;;;;;7.72;4.13;;;;;;;16.49;39.01;97885.69;4905731;29;20070;-72
2021/05/09 07:54:04;;;;;;;5.95;2.97;;;;;;;17.16;37.91;97932.88;4907749;29;20556;-73
2021/05/09 07:56:30;;;;;;;3.03;2.67;;;;;;;17.13;36.35;97880.47;4906967;29;20500;-74
2021/05/09 07:58:55;;;;;;;2.97;2.72;;;;;;;17.65;35.90;97930.34;4906103;29;20034;-72
2021/05/09 08:01:20;;;;;;;5.78;3.45;;;;;;;17.08;36.60;97811.66;4906254;29;20067;-74
2021/05/09 08:03:46;;;;;;;4.25;2.90;;;;;;;17.58;35.43;97930.31;4904850;29;20131;-74
2021/05/09 08:06:11;;;;;;;6.00;3.42;;;;;;;16.41;36.89;97931.53;4906286;29;20119;-74
2021/05/09 08:08:38;;;;;;;3.70;3.08;;;;;;;14.50;37.16;97560.75;4904853;29;20151;-73
2021/05/09 08:11:03;;;;;;;2.80;2.60;;;;;;;16.30;38.15;97933.44;4906222;29;20028;-73
2021/05/09 08:13:29;;;;;;;5.28;3.20;;;;;;;16.65;37.67;97944.16;4905022;29;20491;-71
2021/05/09 08:15:54;;;;;;;2.75;2.55;;;;;;;17.06;37.42;97936.41;4906000;29;20066;-73
2021/05/09 08:18:24;;;;;;;3.20;2.83;;;;;;;17.21;36.28;97926.94;4906219;29;20032;-72
2021/05/09 08:20:49;;;;;;;5.40;2.85;;;;;;;17.40;37.40;97935.03;4905934;29;20031;-70
2021/05/09 08:23:15;;;;;;;2.70;2.50;;;;;;;17.84;37.47;97930.81;4906553;29;20032;-71
2021/05/09 08:25:40;;;;;;;5.30;3.42;;;;;;;18.36;36.95;97937.72;4905658;29;20032;-72
2021/05/09 08:28:06;;;;;;;3.50;3.20;;;;;;;18.66;35.07;97957.81;4907498;29;20669;-71
2021/05/09 08:30:31;;;;;;;3.28;2.97;;;;;;;18.98;33.94;97936.13;4907205;29;20639;-72
2021/05/09 08:32:57;;;;;;;3.30;3.10;;;;;;;17.52;33.46;97731.00;4905791;29;20112;-71
2021/05/09 08:35:22;;;;;;;8.45;4.15;;;;;;;18.81;34.13;97936.94;4907301;29;20083;-73
2021/05/09 08:37:48;;;;;;;2.90;2.72;;;;;;;18.06;33.73;97760.63;4905664;29;20032;-70
2021/05/09 08:40:15;;;;;;;9.30;4.53;;;;;;;19.01;34.01;97935.31;4906739;29;20040;-71
2021/05/09 08:42:47;;;;;;;2.63;2.50;;;;;;;18.88;33.80;97931.31;4905658;29;20079;-72
2021/05/09 08:45:13;;;;;;;5.22;3.60;;;;;;;18.89;33.67;97921.69;4906624;29;20364;-70
2021/05/09 08:47:42;;;;;;;4.03;2.90;;;;;;;18.95;33.40;97880.75;4906965;29;20042;-71
2021/05/09 08:50:15;;;;;;;12.57;9.48;;;;;;;18.85;34.83;97932.13;4905282;29;20127;-69
2021/05/09 08:52:43;;;;;;;3.88;3.30;;;;;;;18.48;34.23;97906.47;4905602;29;20040;-73
2021/05/09 08:55:15;;;;;;;4.30;3.90;;;;;;;17.99;35.05;97875.56;4905029;29;20427;-72
2021/05/09 08:57:41;;;;;;;7.53;3.42;;;;;;;18.15;34.94;97842.31;4907061;29;20052;-72
2021/05/09 09:00:10;;;;;;;3.40;3.15;;;;;;;19.19;34.02;97924.81;4906620;29;20039;-72
2021/05/09 09:02:35;;;;;;;3.40;3.10;;;;;;;18.29;32.94;97735.72;4907323;29;20533;-72
2021/05/09 09:05:01;;;;;;;3.35;3.15;;;;;;;18.43;34.32;97859.16;4905607;29;20044;-72
2021/05/09 09:07:52;;;;;;;5.45;3.30;;;;;;;18.81;33.97;97925.69;4906725;29;20048;-72
2021/05/09 09:10:38;;;;;;;3.83;2.90;;;;;;;18.84;34.09;97868.72;4906684;29;20497;-72
2021/05/09 09:13:25;;;;;;;3.75;3.40;;;;;;;19.25;33.86;97917.56;4907571;29;20111;-72
2021/05/09 09:15:59;;;;;;;6.22;3.80;;;;;;;18.88;34.81;97906.03;4906966;29;20114;-71
2021/05/09 09:18:40;;;;;;;3.28;2.97;;;;;;;18.98;34.71;97913.66;4907589;29;20131;-71
2021/05/09 09:21:19;;;;;;;3.58;3.15;;;;;;;18.77;34.34;97857.53;4906461;29;20035;-71
2021/05/09 09:23:47;;;;;;;3.58;3.25;;;;;;;19.38;34.49;97904.72;4906999;29;20047;-73
2021/05/09 09:26:55;;;;;;;3.05;2.85;;;;;;;18.93;33.84;97786.91;4906806;29;20280;-72
2021/05/09 09:29:23;;;;;;;5.18;3.20;;;;;;;19.79;32.89;97904.94;4905196;29;20516;-72
2021/05/09 09:31:53;;;;;;;3.33;3.13;;;;;;;19.20;33.46;97808.47;4907102;29;20048;-72
2021/05/09 09:34:19;;;;;;;6.25;4.20;;;;;;;19.07;33.75;97826.97;4907329;29;20040;-72
2021/05/09 09:36:45;;;;;;;4.53;3.67;;;;;;;19.57;33.05;97905.47;4906675;29;20032;-71
2021/05/09 09:39:11;;;;;;;3.70;3.40;;;;;;;18.90;33.57;97900.84;4909892;29;20119;-70
2021/05/09 09:41:49;;;;;;;3.30;3.03;;;;;;;18.22;33.66;97819.09;4908104;29;20044;-72
2021/05/09 09:44:16;;;;;;;3.45;2.92;;;;;;;18.90;34.13;97886.78;4910433;29;20032;-72
2021/05/09 09:46:52;;;;;;;2.97;2.78;;;;;;;19.25;33.42;97895.09;4909770;29;20107;-71
2021/05/09 09:49:21;;;;;;;3.20;2.90;;;;;;;19.28;33.21;97821.25;4910053;29;20035;-72
2021/05/09 09:51:49;;;;;;;3.60;3.30;;;;;;;19.90;32.85;97891.59;4909426;29;20051;-71
2021/05/09 09:54:44;;;;;;;3.40;3.10;;;;;;;19.67;32.32;97894.16;4908553;29;20036;-71
2021/05/09 09:57:25;;;;;;;3.72;3.35;;;;;;;19.67;32.38;97888.53;4908886;29;20052;-72
2021/05/09 10:00:14;;;;;;;3.38;3.10;;;;;;;19.44;33.24;97903.09;4908329;29;20036;-70
2021/05/09 10:02:43;;;;;;;3.45;2.90;;;;;;;18.66;33.92;97896.06;4909966;29;20447;-70
2021/05/09 10:05:10;;;;;;;3.25;3.05;;;;;;;19.10;33.48;97893.56;4909311;29;20039;-72
2021/05/09 10:07:35;;;;;;;3.50;3.30;;;;;;;19.21;34.50;97883.09;4910182;29;20575;-70
2021/05/09 10:10:02;;;;;;;3.60;3.40;;;;;;;18.88;35.36;97841.47;4908634;29;20123;-72
2021/05/09 10:12:27;;;;;;;3.10;2.80;;;;;;;19.44;33.54;97869.38;4909466;29;20096;-70
2021/05/09 10:14:53;;;;;;;3.47;3.00;;;;;;;20.07;33.52;97889.91;4909598;29;20554;-71
2021/05/09 10:17:24;;;;;;;5.30;3.03;;;;;;;20.61;32.41;97892.72;4907940;29;20051;-71
2021/05/09 10:19:51;;;;;;;4.97;4.32;;;;;;;20.57;32.99;97885.53;4907865;29;20028;-70
2021/05/09 10:22:29;;;;;;;5.07;3.95;;;;;;;19.55;34.33;97884.16;4907065;29;20424;-72
2021/05/09 10:24:55;;;;;;;3.50;3.30;;;;;;;19.43;34.42;97838.88;4907659;29;20091;-70
2021/05/09 10:27:33;;;;;;;3.40;3.00;;;;;;;19.29;33.07;97890.31;4909120;29;20468;-70
2021/05/09 10:29:59;;;;;;;4.15;3.75;;;;;;;18.86;34.10;97894.41;4908204;29;20108;-71
2021/05/09 10:32:24;;;;;;;3.20;3.00;;;;;;;18.87;35.78;97873.56;4907362;29;20036;-71
2021/05/09 10:34:56;;;;;;;6.15;3.47;;;;;;;18.96;35.15;97876.75;4909266;29;20032;-70
2021/05/09 10:37:45;;;;;;;5.53;3.92;;;;;;;18.39;36.47;97892.06;4908986;29;20051;-71
2021/05/09 10:40:31;;;;;;;5.22;3.85;;;;;;;17.96;36.37;97887.56;4907434;29;20427;-71
2021/05/09 10:43:02;;;;;;;7.68;4.63;;;;;;;18.35;36.29;97888.44;4907830;29;20622;-70
2021/05/09 10:45:39;;;;;;;3.47;3.20;;;;;;;18.23;37.02;97880.41;4907408;29;20032;-72
2021/05/09 10:48:14;;;;;;;6.40;4.20;;;;;;;17.92;37.94;97892.38;4909892;29;20028;-72
2021/05/09 10:50:44;;;;;;;4.85;4.15;;;;;;;17.78;38.26;97853.13;4908320;29;20131;-70
2021/05/09 10:53:30;;;;;;;3.47;3.10;;;;;;;17.58;37.82;97885.47;4909284;29;20040;-71
2021/05/09 10:55:56;;;;;;;6.13;2.80;;;;;;;18.40;36.25;97882.44;4908594;29;20118;-69
2021/05/09 10:58:42;;;;;;;4.03;3.60;;;;;;;18.84;36.98;97851.88;4909108;29;20139;-71
2021/05/09 11:01:07;;;;;;;4.05;3.65;;;;;;;19.52;35.92;97870.94;4906822;29;20055;-71
2021/05/09 11:03:36;;;;;;;3.78;3.35;;;;;;;17.65;34.01;97498.81;4908957;29;20412;-71
2021/05/09 11:06:14;;;;;;;8.32;6.70;;;;;;;20.12;34.27;97875.41;4908678;29;20516;-71
2021/05/09 11:08:42;;;;;;;5.40;4.20;;;;;;;20.37;33.62;97859.97;4908848;29;20047;-69
2021/05/09 11:11:31;;;;;;;3.33;3.03;;;;;;;18.98;35.67;97767.63;4908115;29;20423;-71
2021/05/09 11:13:57;;;;;;;5.20;3.45;;;;;;;19.41;35.87;97875.81;4904389;29;20080;-70
2021/05/09 11:16:29;;;;;;;6.50;3.78;;;;;;;19.84;35.74;97864.34;4908023;29;20070;-70
2021/05/09 11:19:04;;;;;;;8.10;3.30;;;;;;;20.50;34.29;97857.44;4908431;29;20050;-71
2021/05/09 11:21:44;;;;;;;3.25;2.95;;;;;;;21.02;33.55;97861.78;4907943;29;20032;-73
2021/05/09 11:24:17;;;;;;;5.28;3.22;;;;;;;20.43;34.11;97733.66;4908352;29;20115;-70
2021/05/09 11:26:45;;;;;;;4.63;3.35;;;;;;;21.55;33.13;97853.47;4906763;29;20491;-70
2021/05/09 11:29:12;;;;;;;3.03;2.83;;;;;;;22.00;31.97;97857.69;4908833;29;20119;-70
2021/05/09 11:31:43;;;;;;;3.45;3.15;;;;;;;21.68;31.93;97800.91;4908107;29;20115;-72
2021/05/09 11:34:10;;;;;;;4.20;3.80;;;;;;;21.62;31.61;97762.34;4906625;29;20044;-71
2021/05/09 11:36:37;;;;;;;4.05;3.38;;;;;;;20.63;31.16;97648.16;4906076;29;20309;-71
2021/05/09 11:39:07;;;;;;;5.65;4.38;;;;;;;22.29;32.03;97833.44;4906678;29;20051;-71